Time;durP1;ratioP1;P1;durP2;ratioP2;P2;SDS_P1;SDS_P2;PMS_P1;PMS_P2;Temp;Humidity;BMP_temperature;BMP_pressure;BME280_temperature;BME280_humidity;BME280_pressure;Samples;Min_cycle;Max_cycle;Signal;HPM_P1;HPM_P2
2021/01/06 00:00:45;;;;;;;;;22.25;15.25;;;;;3.63;90.86;100927.31;3725481;37;19991;-57
2021/01/06 00:03:20;;;;;;;;;20.25;17.25;;;;;3.69;90.92;100931.28;3728311;37;20018;-56
2021/01/06 00:05:50;;;;;;;;;15.00;13.75;;;;;3.69;90.86;100930.44;3727919;37;20015;-58
2021/01/06 00:08:18;;;;;;;;;13.50;12.75;;;;;3.62;90.42;100928.31;3725524;38;20012;-57
2021/01/06 00:10:59;;;;;;;;;19.00;16.75;;;;;3.64;90.62;100930.81;3727712;38;19996;-56
2021/01/06 00:13:26;;;;;;;;;14.00;13.75;;;;;3.58;90.73;100924.19;3728110;37;20016;-56
2021/01/06 00:15:53;;;;;;;;;17.75;16.25;;;;;3.69;90.77;100936.62;3726101;37;19988;-57
2021/01/06 00:18:23;;;;;;;;;21.25;16.75;;;;;3.73;90.51;100942.56;3725962;38;19988;-58
2021/01/06 00:20:50;;;;;;;;;14.75;14.50;;;;;3.65;90.23;100951.25;3725803;38;20004;-57
2021/01/06 00:23:17;;;;;;;;;17.75;14.25;;;;;3.63;90.63;100953.25;3725755;37;19991;-58
2021/01/06 00:25:44;;;;;;;;;22.00;17.75;;;;;3.65;90.60;100954.78;3725673;37;19971;-58
2021/01/06 00:28:18;;;;;;;;;16.75;13.50;;;;;3.61;90.64;100958.72;3725290;38;19970;-57
2021/01/06 00:30:51;;;;;;;;;22.00;19.25;;;;;3.58;90.49;100945.59;3725406;37;19964;-57
2021/01/06 00:33:24;;;;;;;;;14.50;13.75;;;;;3.64;90.61;100953.06;3725363;38;19999;-58
2021/01/06 00:35:53;;;;;;;;;17.25;14.50;;;;;3.67;90.70;100960.00;3725434;37;19979;-57
2021/01/06 00:38:19;;;;;;;;;23.50;19.00;;;;;3.62;90.42;100960.41;3725386;38;19969;-57
2021/01/06 00:40:46;;;;;;;;;22.75;17.50;;;;;3.59;90.23;100965.19;3725475;38;19965;-56
2021/01/06 00:43:15;;;;;;;;;21.00;18.00;;;;;3.53;90.46;100966.53;3725673;38;19979;-58
2021/01/06 00:45:44;;;;;;;;;16.50;12.50;;;;;3.60;90.32;100974.91;3725969;37;19940;-58
2021/01/06 00:48:11;;;;;;;;;19.50;17.50;;;;;3.62;90.30;100976.47;3725341;37;19939;-58
2021/01/06 00:50:39;;;;;;;;;19.75;18.75;;;;;3.65;90.52;100978.00;3725377;38;19961;-57
2021/01/06 00:53:12;;;;;;;;;18.50;16.50;;;;;3.67;90.50;100982.25;3725722;37;19953;-59
2021/01/06 00:55:41;;;;;;;;;18.50;17.00;;;;;3.48;90.44;100966.06;3725355;37;19948;-56
2021/01/06 00:58:08;;;;;;;;;17.50;14.50;;;;;3.58;90.56;100977.72;3725015;37;19958;-58
2021/01/06 01:00:35;;;;;;;;;22.50;18.25;;;;;3.57;90.41;100976.00;3724801;38;19946;-57
2021/01/06 01:03:02;;;;;;;;;16.00;14.00;;;;;3.54;90.25;100981.63;3725141;38;19946;-57
2021/01/06 01:05:30;;;;;;;;;22.50;18.00;;;;;3.52;90.19;100980.91;3725282;37;19928;-58
2021/01/06 01:07:58;;;;;;;;;20.75;17.75;;;;;3.52;90.27;100983.56;3725449;38;19920;-58
2021/01/06 01:10:33;;;;;;;;;21.75;17.00;;;;;3.46;90.14;100988.59;3725753;37;19926;-58
2021/01/06 01:13:04;;;;;;;;;18.25;17.00;;;;;3.47;90.51;100990.28;3725917;38;19953;-58
2021/01/06 01:15:32;;;;;;;;;22.50;19.25;;;;;3.45;90.47;100979.69;3725377;37;19893;-57
2021/01/06 01:18:03;;;;;;;;;23.75;18.50;;;;;3.50;90.41;100980.16;3725558;37;19928;-58
2021/01/06 01:20:33;;;;;;;;;22.00;19.50;;;;;3.55;90.62;100977.97;3725731;37;19913;-58
2021/01/06 01:22:59;;;;;;;;;21.00;18.00;;;;;3.60;90.58;100975.75;3725373;38;19925;-57
2021/01/06 01:25:28;;;;;;;;;18.25;15.00;;;;;3.59;90.32;100989.25;3725769;38;19894;-57
2021/01/06 01:27:56;;;;;;;;;19.00;17.75;;;;;3.52;90.40;100988.91;3725620;38;19898;-57
2021/01/06 01:30:27;;;;;;;;;14.75;13.25;;;;;3.40;90.49;100971.22;3725847;37;19916;-57
2021/01/06 01:32:54;;;;;;;;;17.50;17.00;;;;;3.47;90.62;100980.44;3725671;37;19909;-58
2021/01/06 01:35:29;;;;;;;;;21.00;16.25;;;;;3.39;90.32;100984.72;3725614;37;19877;-57
2021/01/06 01:37:59;;;;;;;;;22.75;17.00;;;;;3.27;90.72;100971.38;3725687;38;19880;-57
2021/01/06 01:40:39;;;;;;;;;21.50;17.75;;;;;3.41;90.54;101013.03;3725418;37;19907;-57
2021/01/06 01:43:18;;;;;;;;;24.50;21.00;;;;;3.38;90.54;101005.25;3725780;38;19908;-57
2021/01/06 01:46:25;;;;;;;;;19.00;17.00;;;;;3.38;90.47;101001.75;3725333;38;19878;-59
2021/01/06 01:48:53;;;;;;;;;21.50;19.00;;;;;3.38;90.45;100986.53;3725738;38;19861;-58
2021/01/06 01:51:42;;;;;;;;;18.50;17.50;;;;;3.46;90.39;101005.47;3725544;38;19863;-56
2021/01/06 01:54:15;;;;;;;;;21.50;18.50;;;;;3.44;90.33;101003.91;3725804;37;19874;-58
2021/01/06 01:57:08;;;;;;;;;23.00;21.25;;;;;3.50;90.40;101011.44;3725721;37;19889;-57
2021/01/06 01:59:54;;;;;;;;;18.00;16.75;;;;;3.52;90.65;101010.34;3725646;38;19879;-59
2021/01/06 02:03:17;;;;;;;;;25.00;22.75;;;;;3.51;90.42;101016.66;3725799;38;19888;-57
2021/01/06 02:05:57;;;;;;;;;29.25;23.25;;;;;3.52;90.38;101021.03;3725760;37;19881;-58
2021/01/06 02:08:41;;;;;;;;;22.00;20.00;;;;;3.55;90.61;101027.97;3725759;38;19867;-59
2021/01/06 02:11:19;;;;;;;;;17.25;16.50;;;;;3.57;90.69;101018.81;3725506;38;19849;-58
2021/01/06 02:13:59;;;;;;;;;22.75;21.50;;;;;3.50;90.21;101028.34;3725791;37;19834;-56
2021/01/06 02:17:04;;;;;;;;;21.25;19.50;;;;;3.52;90.49;101036.25;3725568;38;19841;-57
2021/01/06 02:19:35;;;;;;;;;23.50;21.50;;;;;3.44;90.19;101036.03;3725801;37;19854;-57
2021/01/06 02:22:04;;;;;;;;;22.25;18.75;;;;;3.42;90.19;101041.50;3725404;37;19842;-58
2021/01/06 02:24:32;;;;;;;;;32.50;22.75;;;;;3.39;90.03;101040.91;3725706;37;19839;-58
2021/01/06 02:26:58;;;;;;;;;32.50;28.00;;;;;3.30;90.01;101039.81;3725454;37;19869;-57
2021/01/06 02:29:26;;;;;;;;;22.75;21.50;;;;;3.22;89.93;101039.59;3725680;37;19814;-57
2021/01/06 02:31:54;;;;;;;;;19.00;17.25;;;;;3.15;90.09;101043.72;3725367;38;19809;-57
2021/01/06 02:34:23;;;;;;;;;26.25;22.00;;;;;3.03;90.22;101042.94;3725228;37;19835;-56
2021/01/06 02:36:49;;;;;;;;;28.00;22.50;;;;;3.03;90.21;101039.41;3725085;37;19807;-56
2021/01/06 02:39:18;;;;;;;;;25.50;22.00;;;;;3.02;90.04;101037.69;3725700;38;19843;-56
2021/01/06 02:41:47;;;;;;;;;31.25;24.50;;;;;2.80;89.78;101043.91;3725394;38;19808;-57
2021/01/06 02:44:17;;;;;;;;;21.75;19.75;;;;;2.52;89.82;101039.91;3725842;38;19791;-58
2021/01/06 02:46:46;;;;;;;;;18.50;16.75;;;;;2.33;90.11;101037.81;3725703;38;19826;-57
2021/01/06 02:49:15;;;;;;;;;18.75;16.00;;;;;2.39;90.07;101055.19;3725760;37;19781;-57
2021/01/06 02:52:04;;;;;;;;;21.00;17.25;;;;;2.37;90.33;101055.31;3725489;37;19802;-58
2021/01/06 02:54:36;;;;;;;;;22.75;16.00;;;;;2.29;90.08;101055.03;3725407;37;19824;-57
2021/01/06 02:57:04;;;;;;;;;18.75;17.50;;;;;2.13;90.35;101066.03;3725977;38;19787;-56
2021/01/06 02:59:43;;;;;;;;;16.00;15.25;;;;;1.97;90.35;101071.72;3725970;38;19787;-57
2021/01/06 03:02:20;;;;;;;;;16.25;15.00;;;;;1.93;90.36;101067.59;3725662;38;19764;-58
2021/01/06 03:05:23;;;;;;;;;14.75;10.25;;;;;1.82;90.25;101062.19;3725338;37;19765;-56
2021/01/06 03:07:49;;;;;;;;;19.75;15.75;;;;;1.75;90.56;101062.75;3725697;37;19778;-58
2021/01/06 03:10:18;;;;;;;;;22.50;17.00;;;;;1.65;90.63;101071.44;3725652;37;19773;-56
2021/01/06 03:12:47;;;;;;;;;26.25;20.50;;;;;1.56;90.75;101065.97;3725164;37;19763;-59
2021/01/06 03:15:17;;;;;;;;;27.75;24.00;;;;;1.55;90.85;101069.59;3725393;37;19833;-57
2021/01/06 03:17:44;;;;;;;;;25.25;16.50;;;;;1.48;90.96;101066.53;3725621;38;19776;-56
2021/01/06 03:20:16;;;;;;;;;28.75;18.75;;;;;1.56;91.00;101069.47;3725524;38;19758;-57
2021/01/06 03:22:49;;;;;;;;;30.50;24.25;;;;;1.55;91.15;101066.94;3725628;37;19796;-56
2021/01/06 03:25:17;;;;;;;;;29.00;18.25;;;;;1.61;91.14;101079.78;3725349;37;19735;-57
2021/01/06 03:27:51;;;;;;;;;38.25;25.50;;;;;1.57;91.33;101083.66;3725535;37;19791;-57
2021/01/06 03:30:24;;;;;;;;;27.25;21.00;;;;;1.54;91.28;101076.75;3725309;37;19796;-57
2021/01/06 03:33:29;;;;;;;;;43.25;29.25;;;;;1.52;91.41;101091.19;3725711;38;20735;-57
2021/01/06 03:36:01;;;;;;;;;37.00;27.75;;;;;1.51;91.81;101098.31;3725402;37;19752;-58
2021/01/06 03:38:37;;;;;;;;;18.50;15.50;;;;;1.43;92.26;101103.38;3725374;38;19837;-57
2021/01/06 03:41:07;;;;;;;;;30.00;17.00;;;;;1.42;91.29;101101.66;3725686;37;20738;-57
2021/01/06 03:43:41;;;;;;;;;35.75;19.50;;;;;1.46;91.56;101096.94;3725267;37;20761;-57
2021/01/06 03:46:35;;;;;;;;;32.75;20.25;;;;;1.43;91.40;101095.38;3726312;38;20755;-57
2021/01/06 03:49:31;;;;;;;;;51.25;27.75;;;;;1.46;92.00;101100.47;3725586;38;20778;-58
2021/01/06 03:52:18;;;;;;;;;30.75;18.50;;;;;1.53;91.83;101111.56;3726235;38;20763;-58
2021/01/06 03:55:13;;;;;;;;;37.75;23.75;;;;;1.50;91.70;101115.28;3726939;37;20741;-56
2021/01/06 03:57:40;;;;;;;;;39.00;23.75;;;;;1.49;91.83;101118.91;3728404;37;20748;-57
2021/01/06 04:00:18;;;;;;;;;23.25;18.00;;;;;1.56;91.47;101112.16;3726823;37;20729;-56
2021/01/06 04:02:52;;;;;;;;;29.75;19.00;;;;;1.58;91.74;101112.88;3725509;37;20697;-57
2021/01/06 04:05:19;;;;;;;;;18.75;15.00;;;;;1.51;91.52;101110.81;3725631;37;20698;-56
2021/01/06 04:07:51;;;;;;;;;28.25;15.75;;;;;1.51;91.37;101113.47;3725768;37;20673;-58
2021/01/06 04:10:48;;;;;;;;;51.50;37.25;;;;;1.50;91.54;101117.97;3725455;37;20735;-57
2021/01/06 04:13:14;;;;;;;;;21.50;14.25;;;;;1.43;91.50;101107.84;3725749;37;20807;-57
2021/01/06 04:15:41;;;;;;;;;28.25;21.50;;;;;1.51;91.56;101122.34;3725522;37;20687;-57
2021/01/06 04:18:10;;;;;;;;;28.50;22.00;;;;;1.48;91.08;101119.88;3725279;38;20679;-58
2021/01/06 04:20:38;;;;;;;;;20.75;18.50;;;;;1.45;91.13;101116.59;3725541;38;20714;-57
2021/01/06 04:23:14;;;;;;;;;26.50;19.75;;;;;1.37;91.45;101106.47;3725620;38;20676;-57
2021/01/06 04:25:47;;;;;;;;;15.75;13.50;;;;;1.30;91.39;101116.72;3725219;38;20702;-57
2021/01/06 04:28:23;;;;;;;;;24.75;14.50;;;;;1.33;91.52;101123.66;3725644;37;20642;-57
2021/01/06 04:30:59;;;;;;;;;16.50;14.50;;;;;1.28;91.64;101123.97;3725724;38;20668;-58
2021/01/06 04:33:30;;;;;;;;;28.00;14.00;;;;;1.28;91.34;101123.12;3725739;37;20639;-57
2021/01/06 04:36:04;;;;;;;;;26.50;18.25;;;;;1.31;91.80;101126.44;3725718;37;20677;-56
2021/01/06 04:38:39;;;;;;;;;19.50;15.25;;;;;1.28;91.46;101137.31;3725848;38;20657;-57
2021/01/06 04:41:38;;;;;;;;;17.00;14.25;;;;;1.19;91.48;101131.78;3725266;37;20649;-57
2021/01/06 04:44:40;;;;;;;;;19.00;14.25;;;;;1.17;91.57;101134.56;3725539;38;20678;-56
2021/01/06 04:47:42;;;;;;;;;21.50;17.25;;;;;1.18;91.56;101140.75;3725675;38;20664;-57
2021/01/06 04:50:57;;;;;;;;;18.25;13.00;;;;;1.20;91.82;101137.00;3725681;37;20688;-57
2021/01/06 04:53:56;;;;;;;;;19.00;12.50;;;;;1.20;91.68;101146.81;3725801;37;20626;-57
2021/01/06 04:56:55;;;;;;;;;16.00;11.75;;;;;0.95;91.57;101123.75;3725276;37;20645;-57
2021/01/06 04:59:47;;;;;;;;;16.25;13.25;;;;;1.15;91.75;101157.81;3725759;38;20642;-57
2021/01/06 05:02:52;;;;;;;;;15.25;14.00;;;;;1.26;91.96;101155.25;3725317;38;20618;-56
2021/01/06 05:05:59;;;;;;;;;16.00;14.00;;;;;1.25;91.50;101160.69;3725660;38;20640;-57
2021/01/06 05:08:44;;;;;;;;;16.00;15.00;;;;;1.21;91.61;101156.53;3725696;38;20758;-58
2021/01/06 05:11:24;;;;;;;;;13.50;11.00;;;;;1.20;91.88;101158.34;3725127;38;20597;-56
2021/01/06 05:14:09;;;;;;;;;20.25;13.50;;;;;1.23;92.43;101163.47;3725124;38;20604;-57
2021/01/06 05:16:41;;;;;;;;;16.00;11.25;;;;;1.15;91.91;101160.47;3724988;37;20606;-56
2021/01/06 05:19:24;;;;;;;;;15.00;14.00;;;;;1.14;91.48;101161.44;3725484;37;20608;-58
2021/01/06 05:21:52;;;;;;;;;21.00;14.75;;;;;1.08;91.64;101175.19;3725491;37;20586;-58
2021/01/06 05:24:37;;;;;;;;;20.00;14.75;;;;;0.99;91.39;101176.72;3725736;37;20601;-57
2021/01/06 05:27:22;;;;;;;;;15.50;13.50;;;;;1.07;91.76;101194.81;3725251;38;20572;-57
2021/01/06 05:29:59;;;;;;;;;17.25;14.75;;;;;1.16;91.97;101198.66;3725525;38;20567;-58
2021/01/06 05:32:35;;;;;;;;;14.50;11.00;;;;;1.21;91.80;101207.19;3726102;37;20559;-58
2021/01/06 05:35:10;;;;;;;;;17.00;10.50;;;;;1.08;91.49;101177.84;3725393;37;20579;-58
2021/01/06 05:37:37;;;;;;;;;30.75;19.00;;;;;1.26;91.77;101205.91;3725691;38;20571;-57
2021/01/06 05:40:11;;;;;;;;;32.00;17.25;;;;;1.32;91.93;101212.63;3725643;38;20603;-58
2021/01/06 05:42:52;;;;;;;;;20.50;19.00;;;;;1.30;91.87;101201.19;3725397;37;20603;-57
2021/01/06 05:45:25;;;;;;;;;16.50;15.50;;;;;1.32;91.76;101216.13;3725951;37;20585;-57
2021/01/06 05:47:58;;;;;;;;;16.75;15.00;;;;;1.36;91.99;101218.59;3725740;37;20559;-59
2021/01/06 05:50:32;;;;;;;;;23.25;18.50;;;;;1.33;91.83;101231.16;3725687;38;20559;-57
2021/01/06 05:53:52;;;;;;;;;20.75;10.00;;;;;1.35;91.82;101228.41;3725810;37;20565;-56
2021/01/06 05:57:00;;;;;;;;;18.75;18.00;;;;;1.41;91.68;101230.63;3725660;37;20834;-57
2021/01/06 06:00:02;;;;;;;;;22.50;19.75;;;;;1.38;91.80;101233.53;3725687;37;20587;-56
2021/01/06 06:03:16;;;;;;;;;19.50;18.50;;;;;1.57;91.98;101241.91;3725568;37;20529;-57
2021/01/06 06:06:27;;;;;;;;;28.00;22.25;;;;;1.64;91.92;101245.84;3725741;37;20555;-57
2021/01/06 06:09:05;;;;;;;;;33.00;25.00;;;;;1.66;91.57;101256.41;3725535;37;20550;-57
2021/01/06 06:12:20;;;;;;;;;30.25;24.00;;;;;1.70;91.93;101260.56;3725904;38;20547;-56
2021/01/06 06:15:13;;;;;;;;;34.00;29.25;;;;;1.74;91.72;101259.38;3724735;38;20553;-57
2021/01/06 06:18:19;;;;;;;;;29.25;27.25;;;;;1.79;91.71;101267.91;3725684;37;20555;-56
2021/01/06 06:21:11;;;;;;;;;32.00;24.75;;;;;1.88;91.85;101258.38;3725311;38;20531;-60
2021/01/06 06:24:31;;;;;;;;;34.75;28.00;;;;;1.62;91.63;101231.75;3725427;37;20515;-60
2021/01/06 06:27:32;;;;;;;;;37.00;33.50;;;;;1.73;91.65;101249.66;3725805;37;20531;-58
2021/01/06 06:30:48;;;;;;;;;35.75;28.75;;;;;1.81;91.87;101263.31;3725380;38;20647;-58
2021/01/06 06:33:20;;;;;;;;;30.00;27.50;;;;;1.95;91.91;101273.00;3725668;37;20522;-58
2021/01/06 06:35:49;;;;;;;;;26.00;21.00;;;;;1.72;91.39;101260.44;3725766;38;20516;-57
2021/01/06 06:38:19;;;;;;;;;26.50;21.75;;;;;1.70;91.49;101270.38;3725757;37;20523;-58
2021/01/06 06:41:04;;;;;;;;;24.50;21.50;;;;;1.46;91.41;101252.50;3725381;37;20507;-64
2021/01/06 06:43:44;;;;;;;;;22.50;19.25;;;;;1.50;91.44;101258.47;3725764;37;20606;-58
2021/01/06 06:46:49;;;;;;;;;23.50;20.00;;;;;1.36;91.34;101246.09;3725417;37;20474;-57
2021/01/06 06:50:11;;;;;;;;;33.75;24.50;;;;;1.45;91.72;101272.13;3725639;37;20478;-60
2021/01/06 06:53:19;;;;;;;;;24.75;19.25;;;;;1.48;91.76;101274.59;3725745;37;20513;-57
2021/01/06 06:56:11;;;;;;;;;24.75;21.75;;;;;1.55;91.67;101272.34;3727262;37;20485;-60
2021/01/06 06:58:55;;;;;;;;;22.75;19.50;;;;;1.42;91.54;101269.69;3725761;38;20508;-61
2021/01/06 07:01:44;;;;;;;;;40.00;27.25;;;;;1.52;91.43;101291.22;3725785;37;20482;-58
2021/01/06 07:04:24;;;;;;;;;31.00;23.50;;;;;1.54;91.65;101287.50;3725786;38;20506;-58
2021/01/06 07:07:02;;;;;;;;;25.00;21.25;;;;;1.63;91.82;101281.47;3725880;38;20493;-57
2021/01/06 07:09:34;;;;;;;;;40.25;28.25;;;;;1.70;91.62;101284.56;3725455;37;20466;-58
2021/01/06 07:12:06;;;;;;;;;36.00;30.00;;;;;1.67;91.44;101279.44;3725852;38;20488;-57
2021/01/06 07:14:57;;;;;;;;;39.75;34.50;;;;;1.69;91.82;101282.88;3725585;37;20485;-59
2021/01/06 07:17:41;;;;;;;;;42.75;31.75;;;;;1.84;91.85;101283.59;3725734;37;20497;-58
2021/01/06 07:20:14;;;;;;;;;30.50;26.00;;;;;1.76;91.35;101280.63;3725702;37;20448;-58
2021/01/06 07:22:46;;;;;;;;;28.75;24.50;;;;;1.72;91.31;101281.78;3725785;37;20461;-57
2021/01/06 07:25:42;;;;;;;;;24.75;21.50;;;;;1.54;91.36;101252.81;3725546;38;20434;-58
2021/01/06 07:28:15;;;;;;;;;24.75;19.00;;;;;1.64;91.55;101269.84;3725928;37;20438;-61
2021/01/06 07:30:49;;;;;;;;;37.25;30.50;;;;;1.63;91.46;101276.16;3726617;37;20464;-58
2021/01/06 07:33:36;;;;;;;;;51.75;39.50;;;;;1.75;91.73;101281.56;3727175;37;20489;-60
2021/01/06 07:36:25;;;;;;;;;36.50;34.00;;;;;1.94;92.12;101290.84;3725879;37;20493;-59
2021/01/06 07:38:53;;;;;;;;;22.25;20.25;;;;;1.89;91.17;101292.13;3728773;37;20460;-59
2021/01/06 07:41:21;;;;;;;;;29.25;23.50;;;;;1.67;91.37;101282.97;3728913;38;20446;-58
2021/01/06 07:44:22;;;;;;;;;31.75;23.50;;;;;1.67;91.54;101298.97;3726768;37;20399;-61
2021/01/06 07:47:26;;;;;;;;;29.50;24.75;;;;;1.70;91.45;101297.91;3725670;37;20432;-61
2021/01/06 07:50:05;;;;;;;;;27.25;23.00;;;;;1.57;91.30;101297.91;3725630;38;20387;-59
2021/01/06 07:53:06;;;;;;;;;28.75;22.50;;;;;1.52;91.16;101305.44;3725355;37;20418;-61
2021/01/06 07:55:54;;;;;;;;;26.25;23.75;;;;;1.47;91.21;101304.87;3725872;37;20401;-59
2021/01/06 07:58:32;;;;;;;;;47.25;42.00;;;;;1.41;91.42;101278.66;3725923;37;20400;-60
2021/01/06 08:01:31;;;;;;;;;34.00;29.25;;;;;1.59;91.54;101306.66;3725921;38;21027;-61
2021/01/06 08:04:03;;;;;;;;;43.25;31.75;;;;;1.53;91.22;101295.59;3726415;37;20413;-60
2021/01/06 08:06:59;;;;;;;;;56.25;42.00;;;;;1.51;91.73;101270.84;3726299;37;20395;-60
2021/01/06 08:09:32;;;;;;;;;36.25;27.75;;;;;1.69;91.60;101319.38;3725947;37;20495;-61
2021/01/06 08:12:12;;;;;;;;;34.25;21.50;;;;;1.49;91.65;101305.63;3725769;38;20369;-60
2021/01/06 08:14:39;;;;;;;;;33.50;25.25;;;;;1.30;91.68;101275.88;3725840;37;20381;-61
2021/01/06 08:17:26;;;;;;;;;31.00;22.50;;;;;1.69;91.63;101332.72;3725660;38;20374;-62
2021/01/06 08:20:08;;;;;;;;;35.00;24.50;;;;;1.79;91.91;101325.78;3725770;38;20387;-60
2021/01/06 08:23:16;;;;;;;;;40.25;27.75;;;;;1.76;91.74;101336.66;3725799;38;20389;-60
2021/01/06 08:25:55;;;;;;;;;38.00;26.50;;;;;1.85;91.64;101325.34;3726003;37;20381;-59
2021/01/06 08:28:28;;;;;;;;;33.50;28.00;;;;;1.99;92.05;101325.22;3725884;38;20378;-60
2021/01/06 08:31:08;;;;;;;;;21.25;19.50;;;;;2.08;91.77;101331.72;3725925;38;20354;-60
2021/01/06 08:33:49;;;;;;;;;26.75;21.25;;;;;1.88;91.44;101283.25;3725673;38;20320;-61
2021/01/06 08:36:25;;;;;;;;;19.00;14.75;;;;;2.15;92.03;101290.22;3725574;37;20349;-59
2021/01/06 08:39:18;;;;;;;;;25.00;21.50;;;;;2.26;92.05;101291.16;3725695;37;20333;-61
2021/01/06 08:41:47;;;;;;;;;17.25;15.00;;;;;2.44;91.63;101331.69;3725734;37;20332;-60
2021/01/06 08:44:53;;;;;;;;;19.50;13.00;;;;;2.34;91.43;101338.66;3725051;37;20327;-60
2021/01/06 08:47:39;;;;;;;;;23.00;18.25;;;;;2.35;91.57;101334.19;3725069;37;20486;-59
2021/01/06 08:50:38;;;;;;;;;23.25;18.25;;;;;2.36;91.55;101328.72;3725593;37;20314;-61
2021/01/06 08:53:08;;;;;;;;;21.50;18.25;;;;;2.30;91.61;101314.00;3724403;37;20318;-60
2021/01/06 08:55:39;;;;;;;;;24.00;16.75;;;;;2.40;91.49;101319.53;3725118;37;20299;-60
2021/01/06 08:58:12;;;;;;;;;19.75;18.00;;;;;2.44;91.69;101314.81;3725158;37;20341;-60
2021/01/06 09:01:00;;;;;;;;;19.50;16.00;;;;;2.60;91.59;101318.88;3724466;37;20268;-61
2021/01/06 09:04:02;;;;;;;;;24.50;17.00;;;;;2.74;91.83;101311.66;3725455;37;20298;-61
2021/01/06 09:06:29;;;;;;;;;13.25;12.00;;;;;2.83;91.56;101303.81;3725409;37;20274;-60
2021/01/06 09:09:30;;;;;;;;;18.50;16.00;;;;;2.84;91.49;101294.81;3724828;37;20311;-60
2021/01/06 09:11:58;;;;;;;;;17.75;16.00;;;;;2.90;91.38;101315.75;3725572;38;20254;-59
2021/01/06 09:14:39;;;;;;;;;21.25;13.25;;;;;2.93;91.42;101309.31;3725324;37;20389;-59
2021/01/06 09:17:41;;;;;;;;;22.25;11.00;;;;;2.82;91.39;101291.41;3725399;37;20295;-60
2021/01/06 09:20:14;;;;;;;;;14.25;13.00;;;;;2.88;91.27;101308.81;3725634;38;20286;-61
2021/01/06 09:22:43;;;;;;;;;20.50;16.25;;;;;2.73;91.01;101297.44;3725356;38;20234;-61
2021/01/06 09:25:19;;;;;;;;;18.25;17.25;;;;;2.63;91.36;101288.41;3724751;37;20279;-61
2021/01/06 09:27:48;;;;;;;;;18.25;16.75;;;;;2.84;91.45;101294.81;3724763;38;20262;-60
2021/01/06 09:30:27;;;;;;;;;21.75;14.75;;;;;2.75;91.26;101292.84;3724970;37;20265;-60
2021/01/06 09:32:57;;;;;;;;;15.75;13.00;;;;;2.68;91.26;101278.22;3725361;38;20488;-60
2021/01/06 09:35:33;;;;;;;;;17.50;16.50;;;;;2.78;91.47;101297.09;3725338;38;20271;-60
2021/01/06 09:38:28;;;;;;;;;21.00;17.50;;;;;3.09;92.01;101315.22;3725264;37;20251;-60
2021/01/06 09:41:03;;;;;;;;;16.50;14.00;;;;;3.20;91.69;101292.97;3725453;37;20273;-61
2021/01/06 09:44:00;;;;;;;;;23.00;16.00;;;;;3.24;91.61;101281.91;3725533;38;20241;-61
2021/01/06 09:46:49;;;;;;;;;23.00;14.00;;;;;3.19;91.41;101272.53;3725665;37;20238;-59
2021/01/06 09:49:25;;;;;;;;;24.00;19.75;;;;;3.30;91.06;101291.28;3725791;38;20234;-60
2021/01/06 09:51:57;;;;;;;;;28.50;23.25;;;;;3.28;91.33;101286.06;3725292;37;20239;-60
2021/01/06 09:54:26;;;;;;;;;13.75;13.75;;;;;3.30;91.42;101284.09;3725956;38;20226;-62
2021/01/06 09:56:55;;;;;;;;;22.00;18.00;;;;;3.35;91.54;101286.44;3725684;38;20234;-60
2021/01/06 09:59:29;;;;;;;;;17.00;14.00;;;;;3.58;91.82;101287.31;3725325;37;20483;-59
2021/01/06 10:02:22;;;;;;;;;15.75;15.25;;;;;3.64;91.36;101295.69;3725882;37;20217;-60
2021/01/06 10:04:52;;;;;;;;;21.75;20.00;;;;;3.57;91.27;101278.44;3725852;38;20221;-59
2021/01/06 10:08:06;;;;;;;;;19.25;17.00;;;;;3.58;91.73;101255.19;3725767;37;20223;-60
2021/01/06 10:10:36;;;;;;;;;21.50;19.00;;;;;3.84;91.37;101274.50;3725818;37;20203;-61
2021/01/06 10:13:54;;;;;;;;;18.25;18.00;;;;;3.85;90.96;101278.91;3725737;38;20199;-60
2021/01/06 10:16:30;;;;;;;;;21.25;18.25;;;;;3.80;91.18;101247.13;3725418;38;20203;-60
2021/01/06 10:19:45;;;;;;;;;27.25;21.75;;;;;4.02;91.34;101251.63;3725816;37;20227;-58
2021/01/06 10:22:48;;;;;;;;;20.00;16.75;;;;;3.97;91.27;101254.66;3725064;38;20176;-62
2021/01/06 10:25:45;;;;;;;;;21.50;14.00;;;;;3.75;91.45;101256.50;3725577;37;20215;-59
2021/01/06 10:28:50;;;;;;;;;18.50;17.75;;;;;3.74;91.33;101244.94;3725816;38;20175;-61
2021/01/06 10:31:24;;;;;;;;;23.50;22.00;;;;;3.86;91.17;101251.16;3725368;37;20178;-61
2021/01/06 10:34:21;;;;;;;;;15.50;13.25;;;;;3.98;91.44;101252.84;3726583;38;20194;-62
2021/01/06 10:37:30;;;;;;;;;24.75;22.75;;;;;4.12;91.47;101262.44;3725934;38;20182;-61
2021/01/06 10:40:20;;;;;;;;;22.50;20.00;;;;;4.09;91.23;101244.78;3726161;37;20177;-60
2021/01/06 10:42:48;;;;;;;;;33.00;31.00;;;;;4.15;91.37;101228.22;3725452;38;20182;-61
2021/01/06 10:45:50;;;;;;;;;14.50;13.50;;;;;4.31;91.06;101242.03;3724063;37;20166;-60
2021/01/06 10:48:41;;;;;;;;;19.25;17.75;;;;;4.26;91.39;101222.78;3725216;37;20144;-61
2021/01/06 10:51:08;;;;;;;;;26.50;21.50;;;;;4.43;91.38;101231.28;3725219;38;20159;-60
2021/01/06 10:53:41;;;;;;;;;22.00;20.00;;;;;4.47;91.04;101240.75;3723470;37;20191;-62
2021/01/06 10:56:14;;;;;;;;;19.50;16.75;;;;;4.41;90.77;101234.06;3725458;37;20141;-60
2021/01/06 10:59:05;;;;;;;;;20.25;19.50;;;;;4.44;91.10;101225.78;3725837;38;20163;-62
2021/01/06 11:02:36;;;;;;;;;19.00;15.00;;;;;1.80;91.06;100818.62;3725740;38;20120;-59
2021/01/06 11:05:22;;;;;;;;;31.50;30.50;;;;;4.60;90.80;101236.06;3725440;38;20126;-61
2021/01/06 11:08:47;;;;;;;;;19.00;16.25;;;;;4.28;90.18;101236.06;3725571;37;20120;-60
2021/01/06 11:12:08;;;;;;;;;20.50;17.50;;;;;4.25;90.81;101229.13;3726233;37;20130;-63
2021/01/06 11:15:14;;;;;;;;;23.50;20.50;;;;;4.34;90.90;101224.84;3728623;38;20106;-61
2021/01/06 11:17:45;;;;;;;;;23.50;23.00;;;;;4.29;90.73;101232.41;3728385;37;20107;-60
2021/01/06 11:20:37;;;;;;;;;23.25;22.50;;;;;4.40;90.96;101223.47;3726129;38;20104;-62
2021/01/06 11:23:51;;;;;;;;;26.25;22.75;;;;;4.52;91.22;101206.37;3729394;38;20104;-61
2021/01/06 11:26:46;;;;;;;;;24.75;21.75;;;;;4.75;91.12;101221.34;3729321;37;20127;-60
2021/01/06 11:29:54;;;;;;;;;26.50;22.00;;;;;4.65;90.90;101209.75;3726377;37;20109;-62
2021/01/06 11:32:27;;;;;;;;;20.00;18.50;;;;;4.42;90.40;101203.63;3725842;37;20107;-60
2021/01/06 11:35:15;;;;;;;;;20.75;20.25;;;;;4.39;90.50;101203.03;3725870;38;20097;-61
2021/01/06 11:37:43;;;;;;;;;21.25;19.75;;;;;4.43;90.53;101196.44;3725865;37;20079;-60
2021/01/06 11:40:54;;;;;;;;;24.00;21.25;;;;;4.60;90.91;101188.69;3725949;37;20111;-60
2021/01/06 11:43:37;;;;;;;;;18.00;17.00;;;;;4.73;90.64;101179.56;3725775;38;20109;-60
2021/01/06 11:46:34;;;;;;;;;19.75;17.50;;;;;4.81;90.80;101182.44;3725795;38;20067;-59
2021/01/06 11:49:54;;;;;;;;;21.50;19.75;;;;;4.94;91.16;101175.06;3725394;37;20093;-60
2021/01/06 11:52:42;;;;;;;;;26.25;24.00;;;;;5.08;90.59;101169.34;3725261;38;20067;-59
2021/01/06 11:55:23;;;;;;;;;8.25;7.25;;;;;5.06;90.37;101170.47;3725385;38;20087;-58
2021/01/06 11:58:14;;;;;;;;;20.25;16.00;;;;;4.85;90.13;101165.09;3725853;37;20027;-60
2021/01/06 12:01:20;;;;;;;;;22.25;19.50;;;;;4.73;90.48;101161.66;3725420;37;20062;-58
2021/01/06 12:04:12;;;;;;;;;19.50;18.00;;;;;4.85;90.62;101176.69;3726044;38;20073;-60
2021/01/06 12:07:25;;;;;;;;;24.75;19.25;;;;;4.91;90.84;101178.00;3726033;37;20060;-60
2021/01/06 12:10:22;;;;;;;;;31.75;26.00;;;;;5.05;90.68;101176.81;3725825;37;20053;-58
2021/01/06 12:13:12;;;;;;;;;24.50;22.00;;;;;5.13;90.37;101166.25;3725796;37;20063;-59
2021/01/06 12:16:02;;;;;;;;;25.75;21.00;;;;;4.98;90.07;101169.28;3725690;38;20075;-59
2021/01/06 12:19:10;;;;;;;;;21.75;19.00;;;;;4.66;90.38;101112.25;3725880;38;20068;-58
2021/01/06 12:21:50;;;;;;;;;26.00;21.00;;;;;5.10;90.46;101161.16;3725629;37;20054;-62
2021/01/06 12:24:41;;;;;;;;;27.75;22.00;;;;;5.09;90.56;101167.50;3725974;37;20050;-61
2021/01/06 12:27:55;;;;;;;;;33.00;26.75;;;;;4.96;90.34;101165.03;3726002;38;20029;-59